Time;durP1;ratioP1;P1;durP2;ratioP2;P2;SDS_P1;SDS_P2;PMS_P1;PMS_P2;Temp;Humidity;BMP_temperature;BMP_pressure;BME280_temperature;BME280_humidity;BME280_pressure;Samples;Min_cycle;Max_cycle;Signal;HPM_P1;HPM_P2
2023/04/08 00:02:37;;;;;;;0.20;0.20;;;;;;;;;;6035082;23;20024;-79
2023/04/08 00:05:09;;;;;;;0.20;0.20;;;;;;;;;;6000335;23;20216;-78
2023/04/08 00:10:59;;;;;;;0.20;0.20;;;;;;;;;;6032811;23;20072;-80
2023/04/08 00:13:34;;;;;;;0.20;0.20;;;;;;;;;;6035203;23;20023;-80
2023/04/08 00:19:50;;;;;;;0.20;0.20;;;;;;;;;;6034561;23;20569;-79
2023/04/08 00:44:52;;;;;;;0.20;0.20;;;;;;;;;;6217343;23;20526;-77
2023/04/08 01:37:51;;;;;;;0.20;0.20;;;;;;;;;;6244822;22;20107;-77
2023/04/08 01:49:39;;;;;;;0.20;0.20;;;;;;;;;;6259479;23;20054;-79
2023/04/08 01:52:30;;;;;;;0.30;0.30;;;;;;;;;;6244281;23;20023;-79
2023/04/08 02:31:39;;;;;;;0.20;0.20;;;;;;;;;;6240017;23;20019;-78
2023/04/08 02:34:31;;;;;;;0.20;0.20;;;;;;;;;;6215494;23;20016;-78
2023/04/08 02:40:37;;;;;;;0.20;0.20;;;;;;;;;;6178774;23;20066;-78
2023/04/08 02:46:52;;;;;;;0.15;0.15;;;;;;;;;;6178606;23;20076;-78
2023/04/08 02:49:33;;;;;;;0.20;0.20;;;;;;;;;;6154737;23;20020;-78
2023/04/08 02:59:20;;;;;;;0.20;0.20;;;;;;;;;;6273202;22;20117;-77
2023/04/08 03:05:04;;;;;;;0.20;0.20;;;;;;;;;;6240083;22;20099;-78
2023/04/08 03:14:44;;;;;;;0.20;0.20;;;;;;;;;;6148633;23;20022;-78
2023/04/08 03:17:50;;;;;;;0.20;0.20;;;;;;;;;;6122888;23;20021;-78
2023/04/08 03:31:05;;;;;;;0.20;0.20;;;;;;;;;;6186836;23;20028;-77
2023/04/08 03:33:37;;;;;;;;;;;;;;;;;;6193097;23;20017;-77
2023/04/08 03:45:40;;;;;;;0.20;0.20;;;;;;;;;;6210821;23;20408;-77
2023/04/08 03:52:09;;;;;;;0.20;0.20;;;;;;;;;;6211600;23;20029;-78
2023/04/08 03:55:09;;;;;;;0.20;0.20;;;;;;;;;;6212025;23;20337;-78
2023/04/08 04:01:36;;;;;;;0.20;0.20;;;;;;;;;;6089101;23;20034;-78
2023/04/08 04:04:02;;;;;;;0.10;0.10;;;;;;;;;;6088983;23;20023;-78
2023/04/08 04:29:37;;;;;;;0.20;0.20;;;;;;;;;;6243355;23;20034;-78
2023/04/08 04:47:06;;;;;;;0.20;0.20;;;;;;;;;;6243793;22;20031;-77
2023/04/08 04:53:02;;;;;;;0.20;0.20;;;;;;;;;;6274069;22;20498;-78
2023/04/08 04:59:00;;;;;;;0.20;0.20;;;;;;;;;;6252552;22;20027;-78
2023/04/08 05:02:10;;;;;;;0.20;0.20;;;;;;;;;;6215242;23;20016;-78
2023/04/08 05:14:47;;;;;;;0.20;0.20;;;;;;;;;;6244671;23;20099;-77
2023/04/08 05:17:13;;;;;;;0.10;0.10;;;;;;;;;;6234081;23;20031;-76
2023/04/08 05:22:05;;;;;;;0.20;0.20;;;;;;;;;;6241327;22;20048;-77
2023/04/08 05:24:35;;;;;;;0.20;0.20;;;;;;;;;;6216421;23;20019;-78
2023/04/08 05:27:10;;;;;;;0.10;0.10;;;;;;;;;;6241136;23;20016;-78
2023/04/08 05:45:36;;;;;;;0.20;0.20;;;;;;;;;;6239721;22;20357;-77
2023/04/08 05:51:32;;;;;;;0.20;0.20;;;;;;;;;;6242054;22;20340;-77
2023/04/08 06:03:04;;;;;;;0.20;0.20;;;;;;;;;;6241592;22;20028;-78
2023/04/08 06:14:56;;;;;;;0.20;0.20;;;;;;;;;;6242645;23;20488;-79
2023/04/08 06:17:23;;;;;;;0.20;0.20;;;;;;;;;;6241329;23;20023;-79
2023/04/08 06:19:49;;;;;;;0.20;0.20;;;;;;;;;;6212563;23;20023;-78
2023/04/08 06:22:15;;;;;;;0.20;0.20;;;;;;;;;;6240040;23;20016;-78
2023/04/08 06:24:41;;;;;;;0.20;0.20;;;;;;;;;;6214635;23;20027;-78
2023/04/08 06:27:07;;;;;;;0.20;0.20;;;;;;;;;;6213740;23;20393;-77
2023/04/08 06:29:34;;;;;;;0.20;0.20;;;;;;;;;;6241948;23;20511;-78
2023/04/08 06:32:03;;;;;;;0.20;0.20;;;;;;;;;;6213295;23;20074;-78
2023/04/08 06:34:29;;;;;;;0.38;0.38;;;;;;;;;;6241084;23;20087;-78
2023/04/08 06:36:57;;;;;;;0.20;0.20;;;;;;;;;;6211256;23;20483;-79
2023/04/08 06:39:24;;;;;;;0.20;0.20;;;;;;;;;;6212596;23;20016;-78
2023/04/08 06:41:53;;;;;;;0.20;0.20;;;;;;;;;;6238530;23;20031;-78
2023/04/08 06:44:19;;;;;;;0.20;0.20;;;;;;;;;;6212776;23;20377;-78
2023/04/08 06:46:45;;;;;;;0.20;0.20;;;;;;;;;;6212701;23;20024;-78
2023/04/08 06:49:12;;;;;;;0.20;0.20;;;;;;;;;;6214222;23;20020;-78
2023/04/08 06:51:38;;;;;;;0.20;0.20;;;;;;;;;;6243117;23;20024;-79
2023/04/08 06:54:04;;;;;;;0.20;0.20;;;;;;;;;;6242452;23;20023;-79
2023/04/08 06:56:30;;;;;;;0.20;0.20;;;;;;;;;;6213178;23;20411;-78
2023/04/08 06:58:56;;;;;;;0.20;0.20;;;;;;;;;;6242051;23;20024;-79
2023/04/08 07:01:23;;;;;;;0.20;0.20;;;;;;;;;;6229654;23;20020;-77
2023/04/08 07:03:49;;;;;;;0.20;0.20;;;;;;;;;;6215276;23;20024;-77
2023/04/08 07:06:18;;;;;;;0.20;0.20;;;;;;;;;;6211154;23;20020;-79
2023/04/08 07:08:45;;;;;;;0.20;0.20;;;;;;;;;;6212473;23;20095;-78
2023/04/08 07:11:11;;;;;;;0.10;0.10;;;;;;;;;;6213391;23;20322;-79
2023/04/08 07:13:38;;;;;;;0.20;0.20;;;;;;;;;;6213598;23;20028;-79
2023/04/08 07:16:04;;;;;;;0.10;0.10;;;;;;;;;;6241318;23;20054;-80
2023/04/08 07:18:31;;;;;;;0.20;0.20;;;;;;;;;;6215015;23;20012;-78
2023/04/08 07:20:59;;;;;;;0.15;0.15;;;;;;;;;;6214292;23;20024;-79
2023/04/08 07:23:26;;;;;;;0.20;0.20;;;;;;;;;;6215554;23;20012;-79
2023/04/08 07:25:57;;;;;;;0.20;0.20;;;;;;;;;;6213478;23;20016;-79
2023/04/08 07:28:23;;;;;;;0.17;0.17;;;;;;;;;;6214779;23;20074;-79
2023/04/08 07:30:49;;;;;;;0.20;0.20;;;;;;;;;;6215195;23;20074;-79
2023/04/08 07:33:15;;;;;;;0.20;0.20;;;;;;;;;;6241790;23;20388;-79
2023/04/08 07:35:42;;;;;;;0.10;0.10;;;;;;;;;;6214421;23;20384;-79
2023/04/08 07:38:10;;;;;;;0.13;0.13;;;7.70;99.90;;;;;;6214888;23;20050;-77
2023/04/08 07:40:36;;;;;;;0.20;0.20;;;7.30;99.90;;;;;;6212363;23;20062;-79
2023/04/08 07:43:01;;;;;;;0.10;0.10;;;7.30;99.90;;;;;;6215586;23;20349;-78
2023/04/08 07:45:27;;;;;;;0.20;0.20;;;7.50;99.90;;;;;;6241340;23;20074;-79
2023/04/08 07:47:52;;;;;;;0.20;0.20;;;7.40;99.90;;;;;;6213663;23;20025;-78
2023/04/08 07:50:18;;;;;;;0.10;0.10;;;7.40;99.90;;;;;;6214625;23;20016;-78
2023/04/08 07:52:44;;;;;;;0.20;0.20;;;7.50;99.90;;;;;;6214491;23;20066;-78
2023/04/08 07:55:09;;;;;;;0.20;0.20;;;7.60;99.90;;;;;;6212347;23;20020;-77
2023/04/08 07:57:38;;;;;;;0.20;0.20;;;7.60;99.90;;;;;;6241934;23;20013;-77
2023/04/08 08:00:04;;;;;;;0.10;0.10;;;7.60;99.90;;;;;;6214680;23;20020;-78
2023/04/08 08:02:30;;;;;;;0.20;0.20;;;7.70;99.90;;;;;;6214629;23;20111;-78
2023/04/08 08:04:56;;;;;;;0.20;0.20;;;7.70;99.90;;;;;;6243422;23;20417;-78
2023/04/08 08:07:21;;;;;;;0.20;0.20;;;7.70;99.90;;;;;;6217305;23;20471;-77
2023/04/08 08:09:47;;;;;;;0.20;0.20;;;7.70;99.90;;;;;;6213490;23;20020;-78
2023/04/08 08:12:12;;;;;;;0.20;0.20;;;7.70;99.90;;;;;;6240663;23;20049;-78
2023/04/08 08:14:38;;;;;;;0.10;0.10;;;7.80;99.90;;;;;;6216090;23;20471;-78
2023/04/08 08:17:04;;;;;;;0.20;0.20;;;7.80;99.90;;;;;;6241276;23;20012;-77
2023/04/08 08:19:32;;;;;;;0.20;0.20;;;7.80;99.90;;;;;;6242134;23;20044;-78
2023/04/08 08:21:57;;;;;;;0.20;0.20;;;7.80;99.90;;;;;;6215754;23;20020;-78
2023/04/08 08:24:24;;;;;;;0.10;0.10;;;7.80;99.90;;;;;;6240341;23;20026;-78
2023/04/08 08:26:50;;;;;;;0.20;0.20;;;7.90;99.90;;;;;;6212383;23;20062;-78
2023/04/08 08:29:16;;;;;;;0.10;0.10;;;7.90;99.90;;;;;;6240531;23;20016;-79
2023/04/08 08:31:41;;;;;;;0.10;0.10;;;7.90;99.90;;;;;;6238232;23;20383;-78
2023/04/08 08:34:07;;;;;;;0.20;0.20;;;7.90;99.90;;;;;;6244971;23;20020;-78
2023/04/08 08:36:33;;;;;;;0.10;0.10;;;7.90;99.90;;;;;;6241156;23;20066;-78
2023/04/08 08:38:58;;;;;;;0.20;0.20;;;7.90;99.90;;;;;;6214475;23;20035;-81
2023/04/08 08:41:24;;;;;;;0.10;0.10;;;7.90;99.90;;;;;;6213594;23;20048;-79
2023/04/08 08:43:50;;;;;;;0.20;0.20;;;7.90;99.90;;;;;;6243976;23;20020;-79
2023/04/08 08:46:18;;;;;;;0.20;0.20;;;7.90;99.90;;;;;;6217834;23;20031;-78
2023/04/08 08:48:44;;;;;;;0.13;0.13;;;7.90;99.90;;;;;;6231913;23;20022;-79
2023/04/08 08:51:12;;;;;;;0.20;0.20;;;8.00;99.90;;;;;;6217441;23;20020;-79
2023/04/08 08:53:38;;;;;;;0.20;0.20;;;8.00;99.90;;;;;;6215441;23;20012;-80
2023/04/08 08:56:10;;;;;;;0.15;0.15;;;8.10;99.90;;;;;;6211659;23;20027;-82
2023/04/08 08:58:36;;;;;;;0.20;0.20;;;8.00;99.90;;;;;;6212666;23;20020;-81
2023/04/08 09:01:20;;;;;;;0.13;0.13;;;8.00;99.90;;;;;;6240553;23;20453;-81
2023/04/08 09:03:46;;;;;;;0.20;0.20;;;8.10;99.90;;;;;;6239649;23;20107;-81
2023/04/08 09:06:17;;;;;;;0.10;0.10;;;8.00;99.90;;;;;;6242318;23;20192;-80
2023/04/08 09:08:43;;;;;;;0.17;0.17;;;8.20;99.90;;;;;;6244111;23;20016;-81
2023/04/08 09:11:26;;;;;;;0.20;0.20;;;8.10;99.90;;;;;;6241490;23;20016;-82
2023/04/08 09:13:52;;;;;;;0.20;0.20;;;8.10;99.90;;;;;;6242494;23;20026;-81
2023/04/08 09:16:18;;;;;;;0.10;0.10;;;8.10;99.90;;;;;;6216088;23;20015;-81
2023/04/08 09:18:46;;;;;;;0.10;0.10;;;8.20;99.90;;;;;;6242746;23;20017;-81
2023/04/08 09:21:16;;;;;;;0.20;0.20;;;8.20;99.90;;;;;;6243110;23;20027;-81
2023/04/08 09:23:51;;;;;;;0.20;0.20;;;8.20;99.90;;;;;;6216444;23;20012;-81
2023/04/08 09:26:23;;;;;;;0.20;0.20;;;8.30;99.90;;;;;;6240973;23;20027;-80
2023/04/08 09:29:03;;;;;;;0.20;0.20;;;8.40;99.90;;;;;;6216409;23;20047;-79
2023/04/08 09:31:40;;;;;;;0.20;0.20;;;8.40;99.90;;;;;;6216524;23;20453;-80
2023/04/08 09:34:11;;;;;;;0.10;0.10;;;8.50;99.90;;;;;;6216428;23;20019;-80
2023/04/08 09:36:37;;;;;;;;;;;8.50;99.90;;;;;;6243726;23;20074;-80
2023/04/08 09:39:12;;;;;;;0.13;0.13;;;8.50;99.90;;;;;;6214431;23;19978;-79
2023/04/08 09:41:39;;;;;;;0.17;0.17;;;8.60;99.90;;;;;;6214843;23;20128;-80
2023/04/08 09:44:10;;;;;;;0.20;0.20;;;8.70;99.90;;;;;;6216935;23;20047;-80
2023/04/08 09:46:51;;;;;;;0.20;0.20;;;8.80;99.90;;;;;;6243649;23;20016;-80
2023/04/08 09:49:27;;;;;;;0.10;0.10;;;8.90;99.90;;;;;;6215967;23;20016;-79
2023/04/08 09:52:14;;;;;;;0.10;0.10;;;8.90;99.90;;;;;;6216274;23;20024;-80
2023/04/08 09:55:01;;;;;;;0.15;0.15;;;9.00;99.90;;;;;;6243437;23;20087;-79
2023/04/08 09:57:55;;;;;;;0.20;0.20;;;9.00;99.90;;;;;;6216637;23;20087;-80
2023/04/08 10:00:27;;;;;;;0.10;0.10;;;9.10;99.90;;;;;;6245706;23;20082;-79
2023/04/08 10:02:53;;;;;;;0.17;0.17;;;9.20;99.90;;;;;;6216666;23;20008;-79
2023/04/08 10:05:20;;;;;;;0.15;0.15;;;9.30;99.90;;;;;;6243659;23;20023;-80
2023/04/08 10:07:46;;;;;;;0.13;0.13;;;9.30;99.90;;;;;;6217320;23;20024;-79
2023/04/08 10:10:13;;;;;;;0.20;0.20;;;9.40;99.90;;;;;;6216226;23;20478;-80
2023/04/08 10:12:39;;;;;;;0.20;0.20;;;9.40;99.90;;;;;;6214696;23;20016;-80
2023/04/08 10:15:29;;;;;;;0.10;0.10;;;9.50;99.90;;;;;;6242487;23;20012;-79
2023/04/08 10:18:19;;;;;;;0.10;0.10;;;9.50;99.90;;;;;;6216689;23;20344;-78
2023/04/08 10:20:48;;;;;;;0.10;0.10;;;9.60;99.90;;;;;;6208579;23;20095;-79
2023/04/08 10:23:17;;;;;;;0.10;0.10;;;9.60;99.90;;;;;;6216414;23;20020;-78
2023/04/08 10:25:44;;;;;;;0.20;0.20;;;9.60;99.90;;;;;;6216029;23;20027;-78
2023/04/08 10:28:10;;;;;;;0.20;0.20;;;9.70;99.90;;;;;;6216824;23;20024;-78
2023/04/08 10:30:46;;;;;;;0.10;0.10;;;9.70;99.90;;;;;;6217130;23;20012;-78
2023/04/08 10:33:14;;;;;;;0.20;0.20;;;9.70;99.90;;;;;;6226715;23;20095;-78
2023/04/08 10:35:53;;;;;;;0.20;0.20;;;9.70;99.90;;;;;;6248040;23;20016;-77
2023/04/08 10:38:20;;;;;;;0.20;0.20;;;9.80;99.90;;;;;;6242263;23;20370;-79
2023/04/08 10:40:47;;;;;;;0.20;0.20;;;9.80;99.90;;;;;;6213277;23;20403;-78
2023/04/08 10:43:14;;;;;;;0.10;0.10;;;9.80;99.90;;;;;;6213611;23;20393;-78
2023/04/08 10:45:41;;;;;;;0.10;0.10;;;9.90;99.90;;;;;;6214914;23;20099;-79
2023/04/08 10:48:15;;;;;;;0.10;0.10;;;9.90;99.90;;;;;;6215084;23;20055;-78
2023/04/08 10:50:41;;;;;;;0.20;0.20;;;10.00;99.90;;;;;;6214577;23;20016;-78
2023/04/08 10:53:07;;;;;;;0.10;0.10;;;10.00;99.90;;;;;;6242279;23;20012;-78
2023/04/08 10:55:33;;;;;;;0.20;0.20;;;10.10;99.90;;;;;;6240576;23;20325;-78
2023/04/08 10:58:07;;;;;;;0.20;0.20;;;10.10;99.90;;;;;;6242338;23;20012;-77
2023/04/08 11:00:38;;;;;;;0.13;0.13;;;10.20;99.90;;;;;;6215679;23;20630;-78
2023/04/08 11:03:06;;;;;;;0.20;0.20;;;10.20;99.90;;;;;;6215577;23;20051;-77
2023/04/08 11:05:38;;;;;;;0.20;0.20;;;10.30;99.90;;;;;;6241131;23;20020;-78
2023/04/08 11:08:05;;;;;;;0.10;0.10;;;10.30;99.90;;;;;;6241982;23;20074;-78
2023/04/08 11:10:48;;;;;;;0.10;0.10;;;10.30;99.90;;;;;;6240108;23;20008;-77
2023/04/08 11:13:15;;;;;;;0.20;0.20;;;10.30;99.90;;;;;;6212714;23;20341;-77
2023/04/08 11:15:41;;;;;;;0.10;0.10;;;10.30;99.90;;;;;;6215002;23;20094;-78
2023/04/08 11:18:16;;;;;;;0.20;0.20;;;10.40;99.90;;;;;;6241298;23;20024;-77
2023/04/08 11:20:43;;;;;;;0.20;0.20;;;10.40;99.90;;;;;;6242570;23;20016;-78
2023/04/08 11:23:13;;;;;;;0.17;0.17;;;10.40;99.90;;;;;;6242956;23;20079;-78
2023/04/08 11:25:44;;;;;;;0.20;0.20;;;10.40;99.90;;;;;;6213275;23;20016;-77
2023/04/08 11:28:14;;;;;;;0.20;0.20;;;10.60;99.90;;;;;;6215029;23;20059;-77
2023/04/08 11:30:40;;;;;;;0.10;0.10;;;10.50;99.90;;;;;;6240980;23;20087;-77
2023/04/08 11:33:09;;;;;;;0.20;0.20;;;10.60;99.90;;;;;;6213080;23;20020;-75
2023/04/08 11:35:44;;;;;;;0.13;0.13;;;10.60;99.90;;;;;;6241087;23;20012;-73
2023/04/08 11:38:10;;;;;;;0.10;0.10;;;10.60;99.90;;;;;;6242397;23;20035;-76
2023/04/08 11:40:40;;;;;;;0.20;0.20;;;10.70;99.90;;;;;;6242330;23;20020;-76
2023/04/08 11:43:15;;;;;;;0.20;0.20;;;10.70;99.90;;;;;;6215360;23;20016;-77
2023/04/08 11:45:42;;;;;;;0.15;0.15;;;10.80;99.90;;;;;;6217008;23;20016;-77
2023/04/08 11:48:12;;;;;;;0.20;0.20;;;10.80;99.90;;;;;;6243894;23;20020;-78
2023/04/08 11:50:39;;;;;;;0.20;0.20;;;10.80;99.90;;;;;;6217276;23;20043;-79
2023/04/08 11:53:23;;;;;;;0.20;0.20;;;10.80;99.90;;;;;;6217937;23;20027;-78
2023/04/08 11:55:49;;;;;;;0.20;0.20;;;10.90;99.90;;;;;;6216116;23;20020;-79
2023/04/08 11:58:15;;;;;;;0.17;0.17;;;10.90;99.90;;;;;;6245476;23;20015;-79
2023/04/08 12:00:42;;;;;;;0.13;0.13;;;10.90;99.90;;;;;;6217178;23;20349;-78
2023/04/08 12:03:08;;;;;;;0.10;0.10;;;10.90;99.90;;;;;;6217811;23;20460;-77
2023/04/08 12:05:34;;;;;;;0.20;0.20;;;10.90;99.90;;;;;;6243806;23;20016;-78
2023/04/08 12:07:59;;;;;;;0.20;0.20;;;10.90;99.90;;;;;;6244700;23;20020;-78
2023/04/08 12:10:25;;;;;;;0.15;0.15;;;10.90;99.90;;;;;;6217107;23;20058;-78
2023/04/08 12:12:51;;;;;;;0.20;0.20;;;11.00;99.90;;;;;;6243250;23;20077;-76
2023/04/08 12:15:20;;;;;;;0.20;0.20;;;11.00;99.90;;;;;;6218359;23;20035;-78
2023/04/08 12:17:46;;;;;;;0.20;0.20;;;11.10;99.90;;;;;;6218992;23;20023;-77
2023/04/08 12:20:15;;;;;;;0.10;0.10;;;11.10;99.90;;;;;;6223734;23;20040;-78
2023/04/08 12:22:41;;;;;;;0.10;0.10;;;11.10;99.90;;;;;;6247300;23;20019;-77
2023/04/08 12:25:07;;;;;;;0.10;0.10;;;11.10;99.90;;;;;;6212654;23;20348;-78
2023/04/08 12:27:33;;;;;;;0.10;0.10;;;11.20;99.90;;;;;;6242236;23;20020;-78
2023/04/08 12:29:59;;;;;;;0.15;0.15;;;11.20;99.90;;;;;;6238996;23;20015;-78
2023/04/08 12:32:28;;;;;;;0.10;0.10;;;11.20;99.90;;;;;;6212469;23;20524;-78
2023/04/08 12:34:54;;;;;;;0.20;0.20;;;11.20;99.90;;;;;;6240806;23;20047;-78
2023/04/08 12:37:20;;;;;;;0.20;0.20;;;11.30;99.90;;;;;;6211374;23;20016;-78
2023/04/08 12:39:46;;;;;;;0.13;0.13;;;11.30;99.90;;;;;;6241327;23;20027;-78
2023/04/08 12:42:12;;;;;;;0.10;0.10;;;11.40;99.90;;;;;;6239533;23;20020;-78
2023/04/08 12:44:38;;;;;;;0.20;0.20;;;11.40;99.90;;;;;;6239322;23;20016;-77
2023/04/08 12:47:03;;;;;;;0.20;0.20;;;11.50;99.90;;;;;;6241809;23;20067;-78
2023/04/08 12:49:29;;;;;;;0.20;0.20;;;11.50;99.90;;;;;;6212377;23;20058;-77
2023/04/08 12:51:55;;;;;;;0.20;0.20;;;11.60;99.90;;;;;;6240964;23;20121;-77
2023/04/08 12:54:20;;;;;;;0.17;0.17;;;11.60;99.90;;;;;;6243394;23;20103;-77
2023/04/08 12:56:49;;;;;;;0.20;0.20;;;11.70;99.90;;;;;;6237737;23;20028;-78
2023/04/08 12:59:15;;;;;;;0.10;0.10;;;11.70;99.90;;;;;;6240753;23;20457;-78
2023/04/08 13:01:41;;;;;;;0.10;0.10;;;11.80;99.90;;;;;;6213209;23;20486;-78
2023/04/08 13:04:07;;;;;;;0.20;0.20;;;11.90;99.90;;;;;;6212096;23;20016;-78
2023/04/08 13:06:32;;;;;;;0.15;0.15;;;11.90;99.90;;;;;;6212984;23;20103;-78
2023/04/08 13:08:58;;;;;;;0.20;0.20;;;12.00;99.90;;;;;;6212962;23;20036;-78
2023/04/08 13:11:24;;;;;;;0.20;0.20;;;12.10;99.90;;;;;;6211069;23;20024;-77
2023/04/08 13:13:49;;;;;;;0.10;0.10;;;12.20;99.90;;;;;;6212730;23;20099;-78
2023/04/08 13:16:15;;;;;;;0.20;0.20;;;12.30;99.90;;;;;;6216282;23;20012;-78
2023/04/08 13:18:41;;;;;;;0.13;0.13;;;12.40;99.90;;;;;;6243093;23;20020;-78
2023/04/08 13:21:10;;;;;;;0.10;0.10;;;12.50;99.90;;;;;;6216086;23;20012;-78
2023/04/08 13:23:36;;;;;;;0.20;0.20;;;12.60;99.90;;;;;;6216711;23;20086;-78
2023/04/08 13:26:08;;;;;;;0.13;0.13;;;12.70;99.90;;;;;;6214646;23;20016;-78
2023/04/08 13:28:33;;;;;;;0.15;0.15;;;12.80;99.90;;;;;;6240299;23;20012;-78
2023/04/08 13:30:59;;;;;;;0.13;0.13;;;12.80;99.90;;;;;;6212410;23;20051;-78
2023/04/08 13:33:28;;;;;;;0.10;0.10;;;13.00;99.90;;;;;;6212122;23;20098;-78
2023/04/08 13:35:53;;;;;;;0.20;0.20;;;13.10;99.90;;;;;;6213449;23;20020;-78
2023/04/08 13:38:19;;;;;;;0.10;0.10;;;13.40;99.90;;;;;;6212999;23;20087;-79
2023/04/08 13:40:45;;;;;;;0.10;0.10;;;13.60;99.90;;;;;;6210455;23;20079;-76
2023/04/08 13:43:13;;;;;;;0.10;0.10;;;13.80;99.90;;;;;;6238988;23;20012;-77
2023/04/08 13:45:42;;;;;;;0.20;0.20;;;13.90;99.90;;;;;;6212500;23;20355;-78
2023/04/08 13:48:11;;;;;;;0.10;0.10;;;14.00;99.90;;;;;;6211489;23;20098;-78
2023/04/08 13:50:37;;;;;;;0.20;0.20;;;14.10;99.90;;;;;;6213200;23;20048;-78
2023/04/08 13:53:03;;;;;;;0.20;0.20;;;14.20;99.90;;;;;;6238775;23;20028;-77
2023/04/08 13:55:31;;;;;;;0.17;0.17;;;14.20;99.90;;;;;;6238317;23;20467;-77
2023/04/08 13:58:00;;;;;;;0.20;0.20;;;14.30;99.90;;;;;;6240570;23;20081;-77
2023/04/08 14:00:26;;;;;;;0.10;0.10;;;14.30;99.90;;;;;;6238963;23;20016;-78
2023/04/08 14:02:52;;;;;;;0.10;0.10;;;14.40;99.90;;;;;;6212472;23;20039;-77
2023/04/08 14:05:21;;;;;;;0.20;0.20;;;14.50;99.90;;;;;;6218701;23;20452;-78
2023/04/08 14:07:46;;;;;;;0.15;0.15;;;14.80;99.90;;;;;;6233974;23;20024;-78
2023/04/08 14:10:14;;;;;;;0.20;0.20;;;15.10;99.90;;;;;;6216893;23;20011;-78
2023/04/08 14:12:40;;;;;;;0.20;0.20;;;15.20;99.90;;;;;;6215232;23;20047;-78
2023/04/08 14:15:06;;;;;;;0.20;0.20;;;15.50;99.90;;;;;;6242155;23;20012;-78
2023/04/08 14:17:33;;;;;;;0.20;0.20;;;15.90;99.90;;;;;;6214994;23;20067;-78
2023/04/08 14:20:00;;;;;;;0.20;0.20;;;16.20;99.90;;;;;;6215729;23;20020;-77
2023/04/08 14:22:25;;;;;;;0.13;0.13;;;16.40;99.90;;;;;;6240969;23;20012;-78
2023/04/08 14:24:51;;;;;;;0.20;0.20;;;16.60;99.90;;;;;;6215938;23;20095;-78
2023/04/08 14:27:17;;;;;;;0.20;0.20;;;16.80;99.90;;;;;;6214750;23;20020;-78
2023/04/08 14:29:42;;;;;;;0.17;0.17;;;16.80;99.90;;;;;;6240852;23;20020;-78
2023/04/08 14:32:11;;;;;;;0.20;0.20;;;16.70;99.70;;;;;;6242694;23;20085;-78
2023/04/08 14:34:43;;;;;;;0.20;0.20;;;16.90;99.90;;;;;;6216268;23;20073;-78
2023/04/08 14:37:09;;;;;;;0.10;0.10;;;17.30;99.90;;;;;;6214512;23;20357;-78
2023/04/08 14:39:35;;;;;;;0.20;0.20;;;17.40;99.80;;;;;;6215380;23;20012;-78
2023/04/08 14:42:00;;;;;;;0.20;0.20;;;17.40;99.30;;;;;;6241828;23;20016;-78
2023/04/08 14:44:26;;;;;;;0.13;0.13;;;17.20;98.90;;;;;;6243163;23;20080;-78
2023/04/08 14:46:52;;;;;;;0.10;0.10;;;17.10;98.80;;;;;;6215631;23;20474;-79
2023/04/08 14:49:17;;;;;;;0.20;0.20;;;16.90;98.50;;;;;;6242192;23;20020;-78
2023/04/08 14:51:46;;;;;;;0.20;0.20;;;16.80;98.50;;;;;;6242532;23;20020;-78
2023/04/08 14:54:13;;;;;;;0.10;0.10;;;16.90;99.10;;;;;;6242194;23;20095;-79
2023/04/08 14:56:39;;;;;;;0.20;0.20;;;17.00;98.80;;;;;;6240276;23;20051;-79
2023/04/08 14:59:10;;;;;;;0.20;0.20;;;17.00;98.40;;;;;;6215786;23;20035;-78
2023/04/08 15:01:36;;;;;;;0.20;0.20;;;16.90;98.20;;;;;;6215173;23;20020;-78
2023/04/08 15:04:01;;;;;;;0.20;0.20;;;16.70;98.00;;;;;;6242608;23;20074;-77
2023/04/08 15:06:27;;;;;;;0.10;0.10;;;16.60;98.00;;;;;;6242975;23;20020;-79
2023/04/08 15:08:53;;;;;;;0.10;0.10;;;16.50;98.00;;;;;;6212288;23;20044;-78
2023/04/08 15:11:19;;;;;;;0.20;0.20;;;16.50;98.30;;;;;;6239173;23;20397;-77
2023/04/08 15:13:45;;;;;;;0.10;0.10;;;16.60;99.20;;;;;;6214998;23;20020;-78
2023/04/08 15:16:11;;;;;;;0.30;0.30;;;17.30;99.90;;;;;;6240888;23;20389;-79
2023/04/08 15:18:36;;;;;;;0.20;0.20;;;18.30;99.90;;;;;;6239908;23;20027;-79
2023/04/08 15:21:03;;;;;;;0.20;0.20;;;20.30;99.70;;;;;;6240147;23;20333;-79
2023/04/08 15:23:29;;;;;;;0.10;0.10;;;;;;;;;;6213814;23;20031;-79
2023/04/08 15:25:58;;;;;;;0.20;0.20;;;21.60;98.10;;;;;;6212725;23;20031;-79
2023/04/08 15:28:26;;;;;;;0.20;0.20;;;;;;;;;;6214083;23;20095;-80
2023/04/08 15:30:51;;;;;;;0.40;0.40;;;22.80;99.90;;;;;;6242482;23;20348;-79
2023/04/08 15:33:18;;;;;;;0.20;0.20;;;23.40;97.40;;;;;;6241135;23;20020;-80
2023/04/08 15:35:47;;;;;;;0.30;0.30;;;24.20;96.50;;;;;;6241294;23;20444;-78
2023/04/08 15:38:16;;;;;;;0.20;0.20;;;24.80;95.20;;;;;;6227031;23;20016;-80
2023/04/08 15:40:42;;;;;;;0.28;0.28;;;25.30;94.10;;;;;;6212985;23;20445;-80
2023/04/08 15:43:09;;;;;;;0.20;0.20;;;25.60;92.70;;;;;;6213315;23;20016;-79
2023/04/08 15:45:37;;;;;;;0.30;0.30;;;25.70;91.50;;;;;;6215564;23;20062;-78
2023/04/08 15:48:03;;;;;;;0.40;0.40;;;25.60;90.10;;;;;;6243375;23;20043;-79
2023/04/08 15:50:35;;;;;;;0.20;0.20;;;24.70;85.90;;;;;;6245226;23;20321;-79
2023/04/08 15:53:01;;;;;;;0.20;0.20;;;;;;;;;;6229909;23;20423;-78
2023/04/08 15:55:30;;;;;;;0.30;0.30;;;;;;;;;;6214167;23;20527;-79
2023/04/08 15:57:57;;;;;;;0.25;0.25;;;;;;;;;;6213402;23;20098;-79
2023/04/08 16:00:23;;;;;;;0.20;0.20;;;;;;;;;;6213384;23;20012;-77
2023/04/08 16:02:49;;;;;;;0.40;0.40;;;;;;;;;;6242022;23;20016;-77
2023/04/08 16:05:15;;;;;;;0.20;0.20;;;;;;;;;;6214939;23;20020;-78
2023/04/08 16:07:41;;;;;;;0.10;0.10;;;;;;;;;;6213013;23;20058;-78
2023/04/08 16:10:08;;;;;;;0.20;0.20;;;;;;;;;;6241328;23;20027;-78
2023/04/08 16:12:34;;;;;;;0.20;0.20;;;;;;;;;;6212350;23;20024;-78
2023/04/08 16:15:00;;;;;;;0.20;0.20;;;;;;;;;;6211979;23;20020;-78
2023/04/08 16:17:29;;;;;;;0.10;0.10;;;;;;;;;;6215074;23;20016;-77
2023/04/08 16:19:56;;;;;;;0.20;0.20;;;;;;;;;;6217078;23;20016;-79
2023/04/08 16:22:22;;;;;;;0.20;0.20;;;;;;;;;;6211620;23;20022;-78
2023/04/08 16:24:57;;;;;;;0.30;0.30;;;;;;;;;;6242500;23;20104;-78
2023/04/08 16:27:23;;;;;;;0.20;0.20;;;17.30;86.10;;;;;;6214409;23;20020;-78
2023/04/08 16:29:49;;;;;;;0.20;0.20;;;17.30;86.90;;;;;;6214708;23;20035;-77
2023/04/08 16:32:15;;;;;;;0.20;0.20;;;17.00;87.60;;;;;;6243177;23;20028;-76
2023/04/08 16:34:43;;;;;;;0.20;0.20;;;16.70;88.30;;;;;;6216967;23;20349;-78
2023/04/08 16:37:09;;;;;;;0.20;0.20;;;16.40;88.80;;;;;;6215171;23;20023;-77
2023/04/08 16:39:35;;;;;;;0.17;0.17;;;16.20;89.20;;;;;;6241732;23;20016;-77
2023/04/08 16:42:00;;;;;;;0.10;0.10;;;16.00;89.70;;;;;;6240722;23;20012;-77
2023/04/08 16:44:26;;;;;;;0.10;0.10;;;15.70;90.00;;;;;;6215492;23;20467;-76
2023/04/08 16:46:55;;;;;;;0.10;0.10;;;15.50;90.10;;;;;;6215410;23;20012;-76
2023/04/08 16:49:21;;;;;;;0.20;0.20;;;15.20;90.40;;;;;;6213208;23;20016;-76
2023/04/08 16:51:47;;;;;;;0.22;0.20;;;15.10;90.70;;;;;;6243587;23;20352;-77
2023/04/08 16:54:22;;;;;;;0.20;0.20;;;14.90;90.90;;;;;;6217167;23;20020;-76
2023/04/08 16:56:47;;;;;;;0.20;0.20;;;14.70;91.10;;;;;;6238510;23;20015;-77
2023/04/08 16:59:13;;;;;;;0.10;0.10;;;14.50;91.30;;;;;;6242286;23;20433;-76
2023/04/08 17:01:39;;;;;;;0.20;0.20;;;14.40;91.50;;;;;;6244066;23;20008;-76
2023/04/08 17:04:05;;;;;;;0.20;0.20;;;14.20;91.70;;;;;;6213466;23;20012;-76
2023/04/08 17:06:33;;;;;;;0.20;0.20;;;14.10;91.90;;;;;;6216074;23;20134;-76
2023/04/08 17:08:59;;;;;;;0.15;0.15;;;14.00;92.10;;;;;;6243777;23;20012;-76
2023/04/08 17:11:25;;;;;;;0.20;0.20;;;13.90;92.30;;;;;;6213435;23;20044;-75
2023/04/08 17:13:53;;;;;;;0.20;0.20;;;13.70;92.50;;;;;;6243897;23;20028;-76
2023/04/08 17:16:19;;;;;;;0.20;0.20;;;13.70;92.70;;;;;;6217185;23;20062;-76
2023/04/08 17:18:45;;;;;;;0.20;0.20;;;13.60;92.90;;;;;;6243844;23;20043;-77
2023/04/08 17:21:14;;;;;;;0.20;0.20;;;13.50;93.10;;;;;;6216636;23;20034;-76
2023/04/08 17:23:43;;;;;;;0.10;0.10;;;13.40;93.30;;;;;;6216919;23;20347;-76
2023/04/08 17:26:09;;;;;;;0.13;0.13;;;13.20;93.50;;;;;;6237974;23;20336;-75
2023/04/08 17:28:38;;;;;;;0.10;0.10;;;;;;;;;;6215723;23;20008;-75
2023/04/08 17:31:04;;;;;;;0.20;0.20;;;12.90;93.80;;;;;;6240546;23;20103;-75
2023/04/08 17:33:30;;;;;;;0.10;0.10;;;;;;;;;;6216014;23;20043;-75
2023/04/08 17:35:56;;;;;;;0.10;0.10;;;12.60;94.30;;;;;;6243997;23;20059;-76
2023/04/08 17:38:22;;;;;;;0.20;0.20;;;;;;;;;;6252886;23;20316;-73
2023/04/08 17:40:50;;;;;;;0.20;0.20;;;12.20;95.00;;;;;;6241027;23;20016;-74
2023/04/08 17:43:16;;;;;;;0.10;0.10;;;12.20;95.20;;;;;;6213646;23;20027;-74
2023/04/08 17:45:42;;;;;;;0.20;0.20;;;12.10;95.50;;;;;;6239883;23;20020;-75
2023/04/08 18:31:00;;;;;;;0.10;0.10;;;11.40;98.80;;;;;;6232698;22;20362;-83
2023/04/08 20:32:07;;;;;;;0.10;0.10;;;10.40;99.90;;;;;;6239870;22;20419;-82
2023/04/08 21:03:47;;;;;;;0.20;0.20;;;10.40;99.90;;;;;;6129957;23;20017;-83
2023/04/08 22:20:49;;;;;;;0.20;0.20;;;10.40;99.90;;;;;;6198833;22;20178;-82
2023/04/08 22:36:42;;;;;;;0.10;0.10;;;10.40;99.90;;;;;;6231627;22;20034;-77
2023/04/08 22:47:46;;;;;;;0.13;0.13;;;10.30;99.90;;;;;;6213922;23;20076;-77
2023/04/08 22:51:09;;;;;;;0.10;0.10;;;11.60;99.90;;;;;;6189194;23;20464;-77